Time,TemperatureF,DewpointF,PressureIn,WindDirection,WindDirectionDegrees,WindSpeedMPH,WindSpeedGustMPH,Humidity,HourlyPrecipIn,Conditions,Clouds,dailyrainin,SoftwareType,DateUTC
2013-07-16 00:00:00,74.1,72.6,30.20,N/A,-737280,0.0,0.0,95,0.00,,,0.00,Wunderground v.1.13,2013-07-16 04:00:00,
2013-07-16 00:10:00,74.1,72.6,30.20,N/A,-737280,0.0,0.0,95,0.00,,,0.00,Wunderground v.1.13,2013-07-16 04:10:00,
2013-07-16 00:20:00,74.1,72.6,30.20,N/A,-737280,0.0,0.0,95,0.00,,,0.00,Wunderground v.1.13,2013-07-16 04:20:00,
2013-07-16 00:30:00,73.8,72.3,30.21,N/A,-737280,0.0,0.0,95,0.00,,,0.00,Wunderground v.1.13,2013-07-16 04:30:00,
2013-07-16 00:40:00,73.6,72.4,30.21,N/A,-737280,0.0,0.0,96,0.00,,,0.00,Wunderground v.1.13,2013-07-16 04:40:00,
2013-07-16 00:50:00,73.6,72.4,30.21,N/A,-737280,0.0,0.0,96,0.00,,,0.00,Wunderground v.1.13,2013-07-16 04:50:00,
2013-07-16 01:00:00,73.3,72.1,30.21,N/A,-737280,0.0,0.0,96,0.00,,,0.00,Wunderground v.1.13,2013-07-16 05:00:00,
2013-07-16 01:10:00,73.1,71.9,30.21,N/A,-737280,0.0,0.0,96,0.00,,,0.00,Wunderground v.1.13,2013-07-16 05:10:00,
2013-07-16 01:20:00,73.1,71.9,30.21,N/A,-737280,0.0,0.0,96,0.00,,,0.00,Wunderground v.1.13,2013-07-16 05:20:00,
2013-07-16 01:30:00,72.9,71.7,30.21,N/A,-737280,0.0,0.0,96,0.00,,,0.00,Wunderground v.1.13,2013-07-16 05:30:00,
2013-07-16 01:40:00,72.7,71.8,30.21,N/A,-737280,0.0,0.0,97,0.00,,,0.00,Wunderground v.1.13,2013-07-16 05:40:00,
2013-07-16 01:50:00,72.7,71.8,30.21,N/A,-737280,0.0,0.0,97,0.00,,,0.00,Wunderground v.1.13,2013-07-16 05:50:00,
2013-07-16 02:00:00,72.4,71.5,30.21,N/A,-737280,0.0,0.0,97,0.00,,,0.00,Wunderground v.1.13,2013-07-16 06:00:00,
2013-07-16 02:10:00,72.1,71.2,30.21,N/A,-737280,0.0,0.0,97,0.00,,,0.00,Wunderground v.1.13,2013-07-16 06:10:00,
2013-07-16 02:20:00,72.1,71.2,30.21,N/A,-737280,0.0,0.0,97,0.00,,,0.00,Wunderground v.1.13,2013-07-16 06:20:00,
2013-07-16 02:30:00,71.8,70.9,30.21,N/A,-737280,0.0,0.0,97,0.00,,,0.00,Wunderground v.1.13,2013-07-16 06:30:00,
2013-07-16 02:40:00,71.7,70.8,30.21,N/A,-737280,0.0,0.0,97,0.00,,,0.00,Wunderground v.1.13,2013-07-16 06:40:00,
2013-07-16 02:50:00,71.7,70.8,30.21,N/A,-737280,0.0,0.0,97,0.00,,,0.00,Wunderground v.1.13,2013-07-16 06:50:00,
2013-07-16 03:00:00,71.4,70.8,30.21,N/A,-737280,0.0,0.0,98,0.00,,,0.00,Wunderground v.1.13,2013-07-16 07:00:00,
2013-07-16 03:10:00,71.4,70.8,30.22,N/A,-737280,0.0,0.0,98,0.00,,,0.00,Wunderground v.1.13,2013-07-16 07:10:00,
2013-07-16 03:20:00,71.4,70.8,30.22,N/A,-737280,0.0,0.0,98,0.00,,,0.00,Wunderground v.1.13,2013-07-16 07:20:00,
2013-07-16 03:30:00,71.3,70.7,30.21,N/A,-737280,0.0,0.0,98,0.00,,,0.00,Wunderground v.1.13,2013-07-16 07:30:00,
2013-07-16 03:40:00,71.2,70.6,30.22,N/A,-737280,0.0,0.0,98,0.00,,,0.00,Wunderground v.1.13,2013-07-16 07:40:00,
2013-07-16 03:50:00,71.2,70.6,30.22,N/A,-737280,0.0,0.0,98,0.00,,,0.00,Wunderground v.1.13,2013-07-16 07:50:00,
2013-07-16 04:00:00,71.1,70.5,30.21,N/A,-737280,0.0,0.0,98,0.00,,,0.00,Wunderground v.1.13,2013-07-16 08:00:00,
2013-07-16 04:10:00,71.1,70.8,30.21,N/A,-737280,0.0,0.0,99,0.00,,,0.00,Wunderground v.1.13,2013-07-16 08:10:00,
2013-07-16 04:20:00,71.1,70.8,30.21,N/A,-737280,0.0,0.0,99,0.00,,,0.00,Wunderground v.1.13,2013-07-16 08:20:00,
2013-07-16 04:30:00,71.0,70.7,30.21,N/A,-737280,0.0,0.0,99,0.00,,,0.00,Wunderground v.1.13,2013-07-16 08:30:00,
2013-07-16 04:40:00,70.8,70.5,30.21,N/A,-737280,0.0,0.0,99,0.00,,,0.00,Wunderground v.1.13,2013-07-16 08:40:00,
2013-07-16 04:50:00,70.8,70.5,30.21,N/A,-737280,0.0,0.0,99,0.00,,,0.00,Wunderground v.1.13,2013-07-16 08:50:00,
2013-07-16 05:00:00,70.7,70.4,30.21,N/A,-737280,0.0,0.0,99,0.00,,,0.00,Wunderground v.1.13,2013-07-16 09:00:00,
2013-07-16 05:10:00,70.6,70.3,30.22,N/A,-737280,0.0,0.0,99,0.00,,,0.00,Wunderground v.1.13,2013-07-16 09:10:00,
2013-07-16 05:20:00,70.6,70.3,30.22,N/A,-737280,0.0,0.0,99,0.00,,,0.00,Wunderground v.1.13,2013-07-16 09:20:00,
2013-07-16 05:30:00,70.5,70.2,30.22,N/A,-737280,0.0,0.0,99,0.00,,,0.00,Wunderground v.1.13,2013-07-16 09:30:00,
2013-07-16 05:40:00,70.3,70.0,30.23,N/A,-737280,0.0,0.0,99,0.00,,,0.00,Wunderground v.1.13,2013-07-16 09:40:00,
2013-07-16 05:50:00,70.3,70.0,30.23,N/A,-737280,0.0,0.0,99,0.00,,,0.00,Wunderground v.1.13,2013-07-16 09:50:00,
2013-07-16 06:00:00,70.3,70.0,30.23,WNW,293,0.0,1.0,99,0.00,,,0.00,Wunderground v.1.13,2013-07-16 10:00:00,
2013-07-16 06:10:00,69.9,69.6,30.23,N/A,-737280,0.0,0.0,99,0.00,,,0.00,Wunderground v.1.13,2013-07-16 10:10:00,
2013-07-16 06:20:00,69.9,69.6,30.23,N/A,-737280,0.0,0.0,99,0.00,,,0.00,Wunderground v.1.13,2013-07-16 10:20:00,
2013-07-16 06:30:00,69.7,69.4,30.24,N/A,-737280,0.0,0.0,99,0.00,,,0.00,Wunderground v.1.13,2013-07-16 10:30:00,
2013-07-16 06:40:00,69.8,69.5,30.24,N/A,-737280,0.0,0.0,99,0.00,,,0.00,Wunderground v.1.13,2013-07-16 10:40:00,
2013-07-16 06:50:00,69.8,69.5,30.24,N/A,-737280,0.0,0.0,99,0.00,,,0.00,Wunderground v.1.13,2013-07-16 10:50:00,
2013-07-16 07:00:00,69.7,69.4,30.24,N/A,-737280,0.0,0.0,99,0.00,,,0.00,Wunderground v.1.13,2013-07-16 11:00:00,
2013-07-16 07:10:00,69.7,69.4,30.25,N/A,-737280,0.0,0.0,99,0.00,,,0.00,Wunderground v.1.13,2013-07-16 11:10:00,
2013-07-16 07:20:00,69.7,69.4,30.25,N/A,-737280,0.0,0.0,99,0.00,,,0.00,Wunderground v.1.13,2013-07-16 11:20:00,
2013-07-16 07:30:00,69.8,69.8,30.25,N/A,-737280,0.0,0.0,100,0.00,,,0.00,Wunderground v.1.13,2013-07-16 11:30:00,
2013-07-16 07:40:00,70.2,70.2,30.25,N/A,-737280,0.0,0.0,100,0.00,,,0.00,Wunderground v.1.13,2013-07-16 11:40:00,
2013-07-16 07:50:00,70.2,70.2,30.25,N/A,-737280,0.0,0.0,100,0.00,,,0.00,Wunderground v.1.13,2013-07-16 11:50:00,
2013-07-16 08:00:00,70.4,70.4,30.25,N/A,-737280,0.0,0.0,100,0.00,,,0.00,Wunderground v.1.13,2013-07-16 12:00:00,
2013-07-16 08:10:00,70.7,70.7,30.26,N/A,-737280,0.0,0.0,100,0.00,,,0.00,Wunderground v.1.13,2013-07-16 12:10:00,
2013-07-16 08:20:00,70.7,70.7,30.26,N/A,-737280,0.0,0.0,100,0.00,,,0.00,Wunderground v.1.13,2013-07-16 12:20:00,
2013-07-16 08:30:00,71.1,71.1,30.27,N/A,-737280,0.0,0.0,100,0.00,,,0.00,Wunderground v.1.13,2013-07-16 12:30:00,
2013-07-16 08:40:00,71.7,71.7,30.26,N/A,-737280,0.0,0.0,100,0.00,,,0.00,Wunderground v.1.13,2013-07-16 12:40:00,
2013-07-16 08:50:00,71.7,71.7,30.26,N/A,-737280,0.0,0.0,100,0.00,,,0.00,Wunderground v.1.13,2013-07-16 12:50:00,
2013-07-16 09:00:00,72.2,72.2,30.27,WNW,293,0.0,1.0,100,0.00,,,0.00,Wunderground v.1.13,2013-07-16 13:00:00,
2013-07-16 09:10:00,73.1,72.5,30.27,WNW,293,0.0,1.0,98,0.00,,,0.00,Wunderground v.1.13,2013-07-16 13:10:00,
2013-07-16 09:20:00,73.1,72.5,30.27,WNW,293,0.0,1.0,98,0.00,,,0.00,Wunderground v.1.13,2013-07-16 13:20:00,
2013-07-16 09:30:00,74.5,71.4,30.26,WNW,293,0.0,1.0,90,0.00,,,0.00,Wunderground v.1.13,2013-07-16 13:30:00,
2013-07-16 09:40:00,76.4,72.6,30.26,WNW,293,0.0,1.0,88,0.00,,,0.00,Wunderground v.1.13,2013-07-16 13:40:00,
2013-07-16 09:50:00,76.4,72.6,30.26,WNW,293,0.0,1.0,88,0.00,,,0.00,Wunderground v.1.13,2013-07-16 13:50:00,
2013-07-16 10:00:00,77.9,73.0,30.26,WNW,293,0.0,1.0,85,0.00,,,0.00,Wunderground v.1.13,2013-07-16 14:00:00,
2013-07-16 10:10:00,78.9,73.3,30.26,N/A,-737280,0.0,0.0,83,0.00,,,0.00,Wunderground v.1.13,2013-07-16 14:10:00,
2013-07-16 10:20:00,78.9,73.3,30.26,N/A,-737280,0.0,0.0,83,0.00,,,0.00,Wunderground v.1.13,2013-07-16 14:20:00,
2013-07-16 10:30:00,80.0,74.0,30.26,WNW,293,0.0,1.0,82,0.00,,,0.00,Wunderground v.1.13,2013-07-16 14:30:00,
2013-07-16 10:40:00,80.9,74.5,30.25,WNW,293,0.0,2.0,81,0.00,,,0.00,Wunderground v.1.13,2013-07-16 14:40:00,
2013-07-16 10:50:00,80.9,74.5,30.25,WNW,293,0.0,2.0,81,0.00,,,0.00,Wunderground v.1.13,2013-07-16 14:50:00,
2013-07-16 11:00:00,81.7,74.2,30.25,NW,315,0.0,2.0,78,0.00,,,0.00,Wunderground v.1.13,2013-07-16 15:00:00,
2013-07-16 11:10:00,82.3,75.1,30.25,NW,315,0.0,1.0,79,0.00,,,0.00,Wunderground v.1.13,2013-07-16 15:10:00,
2013-07-16 11:20:00,82.3,75.1,30.25,NW,315,0.0,1.0,79,0.00,,,0.00,Wunderground v.1.13,2013-07-16 15:20:00,
2013-07-16 11:30:00,82.6,75.4,30.25,NW,315,0.0,1.0,79,0.00,,,0.00,Wunderground v.1.13,2013-07-16 15:30:00,
2013-07-16 11:40:00,83.4,74.2,30.24,West,270,0.0,2.0,74,0.00,,,0.00,Wunderground v.1.13,2013-07-16 15:40:00,
2013-07-16 11:50:00,83.4,74.2,30.24,West,270,0.0,2.0,74,0.00,,,0.00,Wunderground v.1.13,2013-07-16 15:50:00,
2013-07-16 12:00:00,83.9,73.1,30.24,West,270,0.0,2.0,70,0.00,,,0.00,Wunderground v.1.13,2013-07-16 16:00:00,
2013-07-16 12:10:00,85.3,73.5,30.23,SSE,158,0.0,2.0,68,0.00,,,0.00,Wunderground v.1.13,2013-07-16 16:10:00,
2013-07-16 12:20:00,85.3,73.5,30.23,SSE,158,0.0,2.0,68,0.00,,,0.00,Wunderground v.1.13,2013-07-16 16:20:00,
2013-07-16 12:30:00,85.7,73.9,30.23,ESE,113,0.0,2.0,68,0.00,,,0.00,Wunderground v.1.13,2013-07-16 16:30:00,
2013-07-16 12:40:00,86.3,73.6,30.23,ESE,113,0.0,2.0,66,0.00,,,0.00,Wunderground v.1.13,2013-07-16 16:40:00,
2013-07-16 12:50:00,86.3,73.6,30.23,ESE,113,0.0,2.0,66,0.00,,,0.00,Wunderground v.1.13,2013-07-16 16:50:00,
2013-07-16 13:00:00,86.2,73.5,30.23,ESE,113,0.0,2.0,66,0.00,,,0.00,Wunderground v.1.13,2013-07-16 17:00:00,
2013-07-16 13:10:00,86.3,73.6,30.22,ESE,113,0.0,2.0,66,0.00,,,0.00,Wunderground v.1.13,2013-07-16 17:10:00,
2013-07-16 13:20:00,86.3,73.6,30.22,ESE,113,0.0,2.0,66,0.00,,,0.00,Wunderground v.1.13,2013-07-16 17:20:00,
2013-07-16 13:30:00,87.4,73.3,30.21,ESE,113,0.0,2.0,63,0.00,,,0.00,Wunderground v.1.13,2013-07-16 17:30:00,
2013-07-16 13:40:00,87.8,73.6,30.21,ESE,113,0.0,2.0,63,0.00,,,0.00,Wunderground v.1.13,2013-07-16 17:40:00,
2013-07-16 13:50:00,87.8,73.6,30.21,ESE,113,0.0,2.0,63,0.00,,,0.00,Wunderground v.1.13,2013-07-16 17:50:00,
2013-07-16 14:00:00,87.4,73.3,30.20,ESE,113,1.0,3.0,63,0.00,,,0.00,Wunderground v.1.13,2013-07-16 18:00:00,
2013-07-16 14:10:00,87.8,72.7,30.20,NW,315,1.0,4.0,61,0.00,,,0.00,Wunderground v.1.13,2013-07-16 18:10:00,
2013-07-16 14:20:00,87.8,72.7,30.20,NW,315,1.0,4.0,61,0.00,,,0.00,Wunderground v.1.13,2013-07-16 18:20:00,
2013-07-16 14:30:00,87.2,74.5,30.19,NW,315,0.0,3.0,66,0.00,,,0.00,Wunderground v.1.13,2013-07-16 18:30:00,
2013-07-16 14:40:00,87.5,70.9,30.19,West,270,1.0,3.0,58,0.00,,,0.00,Wunderground v.1.13,2013-07-16 18:40:00,
2013-07-16 14:50:00,87.5,70.9,30.19,West,270,1.0,3.0,58,0.00,,,0.00,Wunderground v.1.13,2013-07-16 18:50:00,
2013-07-16 15:00:00,88.3,72.2,30.18,WNW,293,1.0,4.0,59,0.00,,,0.00,Wunderground v.1.13,2013-07-16 19:00:00,
2013-07-16 15:10:00,88.6,72.4,30.18,WNW,293,1.0,3.0,59,0.00,,,0.00,Wunderground v.1.13,2013-07-16 19:10:00,
2013-07-16 15:20:00,88.6,72.4,30.18,WNW,293,1.0,3.0,59,0.00,,,0.00,Wunderground v.1.13,2013-07-16 19:20:00,
2013-07-16 15:30:00,88.2,71.6,30.18,WNW,293,1.0,4.0,58,0.00,,,0.00,Wunderground v.1.13,2013-07-16 19:30:00,
2013-07-16 15:40:00,88.7,71.5,30.17,WNW,293,1.0,4.0,57,0.00,,,0.00,Wunderground v.1.13,2013-07-16 19:40:00,
2013-07-16 15:50:00,88.7,71.5,30.17,WNW,293,1.0,4.0,57,0.00,,,0.00,Wunderground v.1.13,2013-07-16 19:50:00,
2013-07-16 16:00:00,88.8,73.1,30.17,WNW,293,1.0,5.0,60,0.00,,,0.00,Wunderground v.1.13,2013-07-16 20:00:00,
2013-07-16 16:10:00,87.9,74.2,30.17,WNW,293,0.0,2.0,64,0.00,,,0.00,Wunderground v.1.13,2013-07-16 20:10:00,
2013-07-16 16:20:00,87.9,74.2,30.17,WNW,293,0.0,2.0,64,0.00,,,0.00,Wunderground v.1.13,2013-07-16 20:20:00,
2013-07-16 16:30:00,87.8,72.7,30.17,WNW,293,0.0,2.0,61,0.00,,,0.00,Wunderground v.1.13,2013-07-16 20:30:00,
2013-07-16 16:40:00,88.1,73.0,30.17,WNW,293,1.0,4.0,61,0.00,,,0.00,Wunderground v.1.13,2013-07-16 20:40:00,
2013-07-16 16:50:00,88.1,73.0,30.17,WNW,293,1.0,4.0,61,0.00,,,0.00,Wunderground v.1.13,2013-07-16 20:50:00,
2013-07-16 17:00:00,88.4,73.7,30.17,WNW,293,1.0,4.0,62,0.00,,,0.00,Wunderground v.1.13,2013-07-16 21:00:00,
2013-07-16 17:10:00,88.2,74.5,30.17,WNW,293,1.0,3.0,64,0.00,,,0.00,Wunderground v.1.13,2013-07-16 21:10:00,
2013-07-16 17:20:00,88.2,74.5,30.17,WNW,293,1.0,3.0,64,0.00,,,0.00,Wunderground v.1.13,2013-07-16 21:20:00,
2013-07-16 17:30:00,87.7,74.0,30.17,WNW,293,1.0,4.0,64,0.00,,,0.00,Wunderground v.1.13,2013-07-16 21:30:00,
2013-07-16 17:40:00,87.6,74.4,30.18,WNW,293,1.0,4.0,65,0.00,,,0.00,Wunderground v.1.13,2013-07-16 21:40:00,
2013-07-16 17:50:00,87.6,74.4,30.18,WNW,293,1.0,4.0,65,0.00,,,0.00,Wunderground v.1.13,2013-07-16 21:50:00,
2013-07-16 18:00:00,87.5,73.8,30.18,WNW,293,1.0,4.0,64,0.00,,,0.00,Wunderground v.1.13,2013-07-16 22:00:00,
2013-07-16 18:10:00,87.4,75.1,30.17,WNW,293,0.0,3.0,67,0.00,,,0.00,Wunderground v.1.13,2013-07-16 22:10:00,
2013-07-16 18:20:00,87.4,75.1,30.17,WNW,293,0.0,3.0,67,0.00,,,0.00,Wunderground v.1.13,2013-07-16 22:20:00,
2013-07-16 18:30:00,87.2,74.9,30.17,WNW,293,1.0,3.0,67,0.00,,,0.00,Wunderground v.1.13,2013-07-16 22:30:00,
2013-07-16 18:40:00,87.0,74.7,30.18,WNW,293,1.0,3.0,67,0.00,,,0.00,Wunderground v.1.13,2013-07-16 22:40:00,
2013-07-16 18:50:00,87.0,74.7,30.18,WNW,293,1.0,3.0,67,0.00,,,0.00,Wunderground v.1.13,2013-07-16 22:50:00,
2013-07-16 19:00:00,87.0,75.2,30.18,WNW,293,0.0,1.0,68,0.00,,,0.00,Wunderground v.1.13,2013-07-16 23:00:00,
2013-07-16 19:10:00,86.6,76.5,30.17,WNW,293,0.0,1.0,72,0.00,,,0.00,Wunderground v.1.13,2013-07-16 23:10:00,
2013-07-16 19:20:00,86.6,76.5,30.17,WNW,293,0.0,1.0,72,0.00,,,0.00,Wunderground v.1.13,2013-07-16 23:20:00,
2013-07-16 19:30:00,85.9,76.2,30.17,N/A,-737280,0.0,0.0,73,0.00,,,0.00,Wunderground v.1.13,2013-07-16 23:30:00,
2013-07-16 19:40:00,85.2,75.1,30.18,N/A,-737280,0.0,0.0,72,0.00,,,0.00,Wunderground v.1.13,2013-07-16 23:40:00,
2013-07-16 19:50:00,85.2,75.1,30.18,N/A,-737280,0.0,0.0,72,0.00,,,0.00,Wunderground v.1.13,2013-07-16 23:50:00,
2013-07-16 20:00:00,84.6,75.8,30.18,N/A,-737280,0.0,0.0,75,0.00,,,0.00,Wunderground v.1.13,2013-07-17 00:00:00,
2013-07-16 20:10:00,84.0,76.0,30.18,N/A,-737280,0.0,0.0,77,0.00,,,0.00,Wunderground v.1.13,2013-07-17 00:10:00,
2013-07-16 20:20:00,84.0,76.0,30.18,N/A,-737280,0.0,0.0,77,0.00,,,0.00,Wunderground v.1.13,2013-07-17 00:20:00,
2013-07-16 20:30:00,83.3,76.5,30.18,N/A,-737280,0.0,0.0,80,0.00,,,0.00,Wunderground v.1.13,2013-07-17 00:30:00,
2013-07-16 20:40:00,82.6,76.5,30.19,N/A,-737280,0.0,0.0,82,0.00,,,0.00,Wunderground v.1.13,2013-07-17 00:40:00,
2013-07-16 20:50:00,82.6,76.5,30.19,N/A,-737280,0.0,0.0,82,0.00,,,0.00,Wunderground v.1.13,2013-07-17 00:50:00,
2013-07-16 21:00:00,81.8,76.1,30.19,N/A,-737280,0.0,0.0,83,0.00,,,0.00,Wunderground v.1.13,2013-07-17 01:00:00,
2013-07-16 21:10:00,81.0,75.7,30.18,WNW,293,0.0,1.0,84,0.00,,,0.00,Wunderground v.1.13,2013-07-17 01:10:00,
2013-07-16 21:20:00,81.0,75.7,30.18,WNW,293,0.0,1.0,84,0.00,,,0.00,Wunderground v.1.13,2013-07-17 01:20:00,
2013-07-16 21:30:00,80.6,74.6,30.18,N/A,-737280,0.0,0.0,82,0.00,,,0.00,Wunderground v.1.13,2013-07-17 01:30:00,
2013-07-16 21:40:00,80.7,75.4,30.18,WNW,293,0.0,1.0,84,0.00,,,0.00,Wunderground v.1.13,2013-07-17 01:40:00,
2013-07-16 21:50:00,80.7,75.4,30.18,WNW,293,0.0,1.0,84,0.00,,,0.00,Wunderground v.1.13,2013-07-17 01:50:00,
2013-07-16 22:30:00,80.1,75.5,30.20,WNW,293,0.0,1.0,86,0.00,,,0.00,Wunderground v.1.13,2013-07-17 02:30:00,
2013-07-16 22:40:00,79.9,75.3,30.20,N/A,-737280,0.0,0.0,86,0.00,,,0.00,Wunderground v.1.13,2013-07-17 02:40:00,
2013-07-16 22:50:00,79.9,75.3,30.20,N/A,-737280,0.0,0.0,86,0.00,,,0.00,Wunderground v.1.13,2013-07-17 02:50:00,
2013-07-16 23:00:00,79.3,74.7,30.20,WNW,293,0.0,1.0,86,0.00,,,0.00,Wunderground v.1.13,2013-07-17 03:00:00,
2013-07-16 23:10:00,78.7,74.8,30.20,WNW,293,0.0,1.0,88,0.00,,,0.00,Wunderground v.1.13,2013-07-17 03:10:00,
2013-07-16 23:20:00,78.7,74.8,30.20,WNW,293,0.0,1.0,88,0.00,,,0.00,Wunderground v.1.13,2013-07-17 03:20:00,
2013-07-16 23:30:00,78.5,74.3,30.20,N/A,-737280,0.0,0.0,87,0.00,,,0.00,Wunderground v.1.13,2013-07-17 03:30:00,
2013-07-16 23:40:00,78.1,74.6,30.20,N/A,-737280,0.0,0.0,89,0.00,,,0.00,Wunderground v.1.13,2013-07-17 03:40:00,
2013-07-16 23:50:00,78.1,74.6,30.20,N/A,-737280,0.0,0.0,89,0.00,,,0.00,Wunderground v.1.13,2013-07-17 03:50:00,